Time;durP1;ratioP1;P1;durP2;ratioP2;P2;SDS_P1;SDS_P2;PMS_P1;PMS_P2;Temp;Humidity;BMP_temperature;BMP_pressure;BME280_temperature;BME280_humidity;BME280_pressure;Samples;Min_cycle;Max_cycle;Signal;HPM_P1;HPM_P2
2022/09/22 00:02:28;;;;;;;2.58;1.00;;;14.90;86.30;;;;;;10445482;28;20037;-63
2022/09/22 00:07:29;;;;;;;2.63;1.13;;;14.90;86.20;;;;;;10441125;28;20147;-63
2022/09/22 00:12:30;;;;;;;1.38;1.00;;;14.90;86.20;;;;;;10443461;28;20164;-62
2022/09/22 00:17:31;;;;;;;1.80;1.10;;;14.90;86.20;;;;;;10440669;28;20379;-63
2022/09/22 00:22:32;;;;;;;1.50;1.20;;;14.80;86.10;;;;;;10443617;28;20393;-63
2022/09/22 00:27:33;;;;;;;3.10;1.13;;;14.80;86.10;;;;;;10444403;28;20033;-63
2022/09/22 00:32:38;;;;;;;1.35;0.90;;;14.80;86.10;;;;;;10441309;28;20619;-63
2022/09/22 00:37:38;;;;;;;0.98;0.85;;;14.80;86.00;;;;;;10442437;28;20110;-63
2022/09/22 00:42:39;;;;;;;1.55;0.90;;;14.70;86.00;;;;;;10444413;28;20040;-63
2022/09/22 00:47:42;;;;;;;2.53;1.17;;;14.70;86.00;;;;;;10441130;28;20029;-63
2022/09/22 00:52:54;;;;;;;0.73;0.70;;;14.70;86.00;;;;;;10441567;28;20029;-63
2022/09/22 00:57:58;;;;;;;1.67;1.00;;;14.70;85.80;;;;;;10443507;28;20391;-63
2022/09/22 01:03:00;;;;;;;0.75;0.75;;;14.60;85.80;;;;;;10443311;28;20121;-63
2022/09/22 01:08:01;;;;;;;0.90;0.82;;;14.60;85.80;;;;;;10440591;28;20040;-62
2022/09/22 01:13:08;;;;;;;1.58;1.30;;;14.60;85.80;;;;;;10443935;28;20033;-63
2022/09/22 01:18:33;;;;;;;2.03;0.90;;;14.60;85.80;;;;;;10440089;28;20037;-63
2022/09/22 01:24:04;;;;;;;1.65;0.88;;;14.50;85.60;;;;;;10439243;28;20112;-63
2022/09/22 01:29:30;;;;;;;1.95;1.13;;;14.50;85.70;;;;;;10438879;28;20103;-63
2022/09/22 01:34:33;;;;;;;0.93;0.88;;;14.50;85.70;;;;;;10429421;28;20516;-63
2022/09/22 01:39:44;;;;;;;0.88;0.75;;;14.50;85.70;;;;;;10437689;28;20031;-63
2022/09/22 01:44:57;;;;;;;1.48;1.00;;;14.40;85.60;;;;;;10439006;28;20106;-63
2022/09/22 01:50:10;;;;;;;2.83;1.15;;;14.40;85.60;;;;;;10437214;28;20123;-63
2022/09/22 01:55:25;;;;;;;0.85;0.80;;;14.40;85.50;;;;;;10439151;28;20040;-63
2022/09/22 02:00:26;;;;;;;1.92;0.90;;;14.40;85.50;;;;;;10440685;28;20033;-63
2022/09/22 02:05:42;;;;;;;2.35;0.98;;;14.40;85.60;;;;;;10440305;28;20041;-62
2022/09/22 02:10:46;;;;;;;0.90;0.70;;;14.30;85.40;;;;;;10437960;28;20028;-63
2022/09/22 02:16:01;;;;;;;1.20;0.90;;;14.30;85.50;;;;;;10439072;28;20286;-63
2022/09/22 02:21:03;;;;;;;1.20;1.00;;;14.30;85.40;;;;;;10438063;28;20064;-63
2022/09/22 02:26:05;;;;;;;0.90;0.70;;;14.20;85.40;;;;;;10437221;28;20349;-63
2022/09/22 02:31:22;;;;;;;1.25;0.80;;;14.20;85.40;;;;;;10476800;28;20414;-62
2022/09/22 02:36:35;;;;;;;2.10;0.90;;;14.20;85.30;;;;;;10477320;28;20029;-62
2022/09/22 02:41:42;;;;;;;1.40;1.00;;;14.20;85.20;;;;;;10471119;28;20151;-62
2022/09/22 02:46:49;;;;;;;1.05;0.77;;;14.10;85.20;;;;;;10468962;28;21517;-62
2022/09/22 02:51:51;;;;;;;3.22;1.25;;;14.10;85.20;;;;;;10470552;28;20025;-63
2022/09/22 02:56:52;;;;;;;2.67;1.10;;;14.10;85.20;;;;;;10475298;28;20595;-65
2022/09/22 03:01:54;;;;;;;1.65;1.10;;;14.10;85.20;;;;;;10479797;28;20095;-62
2022/09/22 03:06:55;;;;;;;2.47;1.08;;;14.00;85.10;;;;;;10474646;28;20032;-63
2022/09/22 03:11:55;;;;;;;1.30;0.98;;;14.00;85.10;;;;;;10481054;28;20400;-62
2022/09/22 03:16:56;;;;;;;1.73;0.90;;;14.00;85.20;;;;;;10479177;28;20024;-62
2022/09/22 03:21:57;;;;;;;1.60;1.17;;;14.00;85.10;;;;;;10476115;28;20025;-63
2022/09/22 03:26:58;;;;;;;1.30;0.90;;;13.90;85.00;;;;;;10470045;28;20409;-63
2022/09/22 03:31:59;;;;;;;1.45;1.00;;;14.00;85.00;;;;;;10475817;28;20028;-62
2022/09/22 03:36:59;;;;;;;3.05;1.10;;;13.90;85.00;;;;;;10483080;28;20048;-63
2022/09/22 03:42:00;;;;;;;1.60;1.00;;;13.90;85.00;;;;;;10452608;28;20025;-63
2022/09/22 03:47:01;;;;;;;1.50;0.90;;;13.80;84.90;;;;;;10447638;28;20037;-62
2022/09/22 03:52:02;;;;;;;1.60;1.20;;;13.90;84.90;;;;;;10451793;28;20025;-63
2022/09/22 03:57:03;;;;;;;1.10;1.00;;;13.80;84.80;;;;;;10444250;28;20021;-63
2022/09/22 04:02:04;;;;;;;2.55;1.10;;;13.80;84.80;;;;;;10445232;28;20033;-62
2022/09/22 04:07:05;;;;;;;1.52;1.10;;;13.80;84.70;;;;;;10448044;28;20541;-63
2022/09/22 04:12:05;;;;;;;1.00;0.90;;;13.70;84.70;;;;;;10445848;28;20017;-63
2022/09/22 04:17:06;;;;;;;1.50;0.90;;;13.70;84.70;;;;;;10443852;28;20442;-64
2022/09/22 04:22:07;;;;;;;2.38;1.00;;;13.70;84.70;;;;;;10440639;28;20033;-63
2022/09/22 04:27:08;;;;;;;1.50;1.15;;;13.70;84.70;;;;;;10444091;28;20046;-62
2022/09/22 04:32:09;;;;;;;2.08;1.20;;;13.70;84.70;;;;;;10449067;28;20512;-63
2022/09/22 04:37:10;;;;;;;1.30;1.00;;;13.70;84.60;;;;;;10441874;28;20025;-62
2022/09/22 04:42:11;;;;;;;1.70;1.20;;;13.60;84.60;;;;;;10450486;28;20502;-62
2022/09/22 04:47:12;;;;;;;1.88;1.20;;;13.60;84.60;;;;;;10445903;28;20029;-63
2022/09/22 04:52:13;;;;;;;1.45;1.20;;;13.60;84.50;;;;;;10443003;28;20025;-63
2022/09/22 04:57:14;;;;;;;2.05;1.27;;;13.60;84.50;;;;;;10443033;28;20033;-63
2022/09/22 05:02:14;;;;;;;1.98;1.50;;;13.50;84.40;;;;;;10448211;28;20117;-62
2022/09/22 05:07:15;;;;;;;2.25;1.55;;;13.50;85.00;;;;;;10453831;28;20033;-63
2022/09/22 05:12:16;;;;;;;1.98;1.48;;;13.50;84.40;;;;;;10442520;28;20033;-62
2022/09/22 05:17:17;;;;;;;1.83;1.25;;;13.50;84.40;;;;;;10443374;28;20033;-62
2022/09/22 05:22:19;;;;;;;2.72;1.55;;;13.40;84.30;;;;;;10443975;28;20029;-62
2022/09/22 05:27:20;;;;;;;3.92;1.95;;;13.40;84.30;;;;;;10440890;28;20044;-62
2022/09/22 05:32:21;;;;;;;2.65;1.88;;;13.40;84.20;;;;;;10446034;28;20041;-63
2022/09/22 05:37:21;;;;;;;2.35;2.03;;;13.40;84.20;;;;;;10444625;28;20019;-62
2022/09/22 05:42:22;;;;;;;2.28;1.45;;;13.40;84.20;;;;;;10416428;28;20817;-63
2022/09/22 05:47:23;;;;;;;2.35;1.80;;;13.40;84.20;;;;;;10365638;28;20068;-64
2022/09/22 05:52:24;;;;;;;3.28;1.70;;;13.40;84.20;;;;;;10376886;28;20390;-62
2022/09/22 05:57:26;;;;;;;4.18;2.17;;;13.40;84.10;;;;;;10368805;28;20526;-63
2022/09/22 06:02:27;;;;;;;3.72;1.88;;;13.40;84.10;;;;;;10364077;28;20443;-63
2022/09/22 06:07:30;;;;;;;3.35;1.95;;;13.30;84.00;;;;;;10372583;28;20324;-63
2022/09/22 06:12:30;;;;;;;1.88;1.67;;;13.30;84.00;;;;;;10369450;28;20458;-63
2022/09/22 06:17:31;;;;;;;2.33;1.77;;;13.00;83.80;;;;;;10371308;28;20310;-62
2022/09/22 06:22:35;;;;;;;2.70;1.80;;;13.30;83.90;;;;;;10363196;28;20059;-63
2022/09/22 06:27:36;;;;;;;4.45;1.60;;;13.30;84.00;;;;;;10360874;28;20400;-63
2022/09/22 06:32:42;;;;;;;4.60;1.77;;;13.30;83.90;;;;;;10361450;28;20267;-63
2022/09/22 06:37:43;;;;;;;2.95;2.00;;;13.40;84.00;;;;;;10357044;28;20041;-62
2022/09/22 06:42:44;;;;;;;2.15;1.80;;;13.30;83.90;;;;;;10362027;28;20464;-63
2022/09/22 06:47:44;;;;;;;3.65;2.00;;;13.30;84.00;;;;;;10365232;28;20172;-63
2022/09/22 06:52:45;;;;;;;2.13;1.75;;;13.30;84.00;;;;;;10357325;28;20573;-63
2022/09/22 06:57:46;;;;;;;2.53;2.03;;;13.30;84.10;;;;;;10370223;28;20327;-64
2022/09/22 07:02:47;;;;;;;4.10;2.08;;;13.40;84.20;;;;;;10365893;28;20060;-64
2022/09/22 07:07:47;;;;;;;3.58;2.70;;;13.90;84.50;;;;;;10362972;28;20440;-62
2022/09/22 07:12:48;;;;;;;4.53;2.20;;;13.40;84.40;;;;;;10358179;28;20025;-62
2022/09/22 07:17:52;;;;;;;4.38;2.38;;;13.40;84.40;;;;;;10359180;28;20402;-62
2022/09/22 07:22:59;;;;;;;2.50;2.00;;;13.50;84.50;;;;;;10352933;28;20029;-62
2022/09/22 07:28:03;;;;;;;3.15;2.30;;;13.50;84.50;;;;;;10351170;28;20573;-62
2022/09/22 07:33:04;;;;;;;2.90;2.00;;;13.50;84.50;;;;;;10345458;28;20033;-62
2022/09/22 07:38:05;;;;;;;3.65;2.10;;;13.50;84.50;;;;;;10351462;28;20263;-62
2022/09/22 07:43:06;;;;;;;5.35;2.58;;;13.50;84.50;;;;;;10353369;28;20025;-62
2022/09/22 07:53:26;;;;;;;3.05;2.30;;;13.70;84.40;;;;;;10348573;28;20422;-62
2022/09/22 07:58:27;;;;;;;3.17;2.17;;;13.80;84.30;;;;;;10350474;28;20395;-62
2022/09/22 08:03:27;;;;;;;3.35;2.30;;;13.90;84.20;;;;;;10349065;28;20345;-64
2022/09/22 08:08:31;;;;;;;3.17;2.13;;;13.90;84.20;;;;;;10344025;28;20252;-61
2022/09/22 08:13:33;;;;;;;3.90;2.80;;;14.10;84.30;;;;;;10350810;28;20464;-61
2022/09/22 08:18:35;;;;;;;4.05;2.42;;;14.10;84.30;;;;;;10342366;28;20536;-60
2022/09/22 08:23:38;;;;;;;3.30;2.00;;;14.10;84.20;;;;;;10346941;28;20177;-63
2022/09/22 08:28:39;;;;;;;4.07;2.22;;;14.20;84.30;;;;;;10353403;28;20478;-61
2022/09/22 08:33:40;;;;;;;3.13;1.83;;;14.20;84.40;;;;;;10346762;28;20025;-61
2022/09/22 08:38:42;;;;;;;2.83;2.13;;;14.20;84.50;;;;;;10349234;28;20030;-63
2022/09/22 08:43:58;;;;;;;3.33;2.20;;;14.30;84.60;;;;;;10344236;28;20033;-62
2022/09/22 08:54:30;;;;;;;3.28;1.65;;;14.30;84.70;;;;;;10357202;28;20123;-62
2022/09/22 08:59:50;;;;;;;4.53;1.60;;;14.40;84.80;;;;;;10373464;28;20436;-61
2022/09/22 09:05:00;;;;;;;2.83;1.50;;;14.40;85.00;;;;;;10355715;28;20444;-62
2022/09/22 09:10:25;;;;;;;3.08;1.50;;;14.40;84.80;;;;;;10347394;28;20040;-63
2022/09/22 09:15:56;;;;;;;7.47;2.05;;;14.50;84.80;;;;;;10349590;28;20127;-62
2022/09/22 09:20:59;;;;;;;5.75;1.70;;;14.60;85.20;;;;;;10351028;28;20758;-62
2022/09/22 09:26:01;;;;;;;2.67;1.67;;;14.60;85.00;;;;;;10344842;28;20048;-62
2022/09/22 09:31:15;;;;;;;2.70;1.98;;;14.70;84.90;;;;;;10345339;28;20083;-62
2022/09/22 09:36:21;;;;;;;4.75;2.10;;;14.80;85.00;;;;;;10352848;28;20500;-63
2022/09/22 09:41:31;;;;;;;1.98;1.58;;;14.90;85.00;;;;;;10345966;28;20103;-62
2022/09/22 09:47:01;;;;;;;4.47;1.50;;;14.90;84.80;;;;;;10348238;28;20629;-62
2022/09/22 09:52:07;;;;;;;2.55;1.77;;;15.00;85.10;;;;;;10345234;28;20124;-62
2022/09/22 09:57:16;;;;;;;2.63;1.52;;;15.10;84.70;;;;;;10352209;28;20024;-63
2022/09/22 10:02:22;;;;;;;2.58;1.60;;;15.20;84.80;;;;;;10361506;28;20404;-62
2022/09/22 10:07:26;;;;;;;2.72;1.30;;;15.20;84.50;;;;;;10356261;28;20149;-62
2022/09/22 10:12:29;;;;;;;4.45;1.38;;;15.30;84.50;;;;;;10358609;28;20457;-61
2022/09/22 10:17:39;;;;;;;4.95;1.70;;;15.40;84.40;;;;;;10348335;28;20110;-62
2022/09/22 10:22:41;;;;;;;2.03;1.40;;;15.40;84.20;;;;;;10354984;28;20285;-62
2022/09/22 10:27:47;;;;;;;3.03;1.50;;;15.50;84.10;;;;;;10357402;28;20053;-63
2022/09/22 10:33:08;;;;;;;3.30;1.40;;;15.60;84.20;;;;;;10352719;28;20552;-62
2022/09/22 10:38:21;;;;;;;1.67;1.27;;;15.70;84.30;;;;;;10357826;28;20048;-62
2022/09/22 10:43:36;;;;;;;2.42;1.40;;;15.70;84.10;;;;;;10358023;28;20025;-61
2022/09/22 10:48:59;;;;;;;1.80;1.35;;;15.80;84.10;;;;;;10358685;28;20461;-62
2022/09/22 10:54:20;;;;;;;2.25;1.27;;;15.90;84.00;;;;;;10360553;28;20207;-61
2022/09/22 10:59:45;;;;;;;2.70;1.25;;;15.90;83.80;;;;;;10368890;28;20505;-61
2022/09/22 11:04:52;;;;;;;4.18;1.10;;;16.00;83.70;;;;;;10367968;28;20148;-61
2022/09/22 11:16:10;;;;;;;4.70;1.30;;;16.10;83.50;;;;;;10372737;28;20035;-63
2022/09/22 11:21:19;;;;;;;5.55;2.10;;;16.20;83.80;;;;;;10367894;28;20311;-63
2022/09/22 11:26:51;;;;;;;3.85;2.03;;;16.30;83.30;;;;;;10360369;28;20880;-61
2022/09/22 11:32:02;;;;;;;6.80;2.63;;;16.50;82.30;;;;;;10360272;28;20366;-60
2022/09/22 11:37:36;;;;;;;5.35;2.13;;;16.70;82.20;;;;;;10354025;28;20037;-64
2022/09/22 11:42:56;;;;;;;7.10;1.98;;;16.70;81.80;;;;;;10363132;28;20301;-65
2022/09/22 11:48:10;;;;;;;3.45;1.52;;;16.70;81.80;;;;;;10363905;28;20543;-70
2022/09/22 11:53:45;;;;;;;2.78;1.75;;;16.80;82.00;;;;;;10372989;28;20618;-66
2022/09/22 11:58:48;;;;;;;1.98;1.45;;;16.80;81.70;;;;;;10375410;28;20028;-65
2022/09/22 12:03:54;;;;;;;4.93;1.35;;;17.00;82.00;;;;;;10371776;28;20363;-65
2022/09/22 12:09:01;;;;;;;3.15;1.50;;;16.90;81.90;;;;;;10382529;28;20102;-66
2022/09/22 12:14:03;;;;;;;4.13;1.30;;;16.90;81.70;;;;;;10379128;28;20017;-65
2022/09/22 12:19:12;;;;;;;2.20;1.20;;;16.90;82.00;;;;;;10375567;28;20565;-65
2022/09/22 12:24:13;;;;;;;4.80;1.33;;;16.80;82.10;;;;;;10366392;28;20032;-65
2022/09/22 12:29:13;;;;;;;2.97;1.13;;;16.80;82.30;;;;;;10365706;28;20319;-66
2022/09/22 12:34:23;;;;;;;1.38;1.02;;;16.90;82.30;;;;;;10367667;28;20459;-66
2022/09/22 12:39:29;;;;;;;2.60;1.20;;;16.90;82.20;;;;;;10376460;28;20040;-65
2022/09/22 12:44:47;;;;;;;4.53;1.35;;;17.00;82.00;;;;;;10385320;28;20028;-65
2022/09/22 12:49:56;;;;;;;3.30;1.20;;;17.00;81.90;;;;;;10364296;28;20041;-66
2022/09/22 12:55:11;;;;;;;;;;;17.10;81.90;;;;;;10364130;28;20025;-66
2022/09/22 13:00:39;;;;;;;1.85;1.13;;;17.20;82.20;;;;;;10381568;28;20432;-67
2022/09/22 13:05:41;;;;;;;1.90;1.08;;;17.20;82.00;;;;;;10383958;28;20040;-65
2022/09/22 13:10:50;;;;;;;1.75;0.98;;;17.20;82.10;;;;;;10378483;28;20221;-68
2022/09/22 13:15:53;;;;;;;1.75;1.00;;;17.20;82.40;;;;;;10371256;28;20487;-65
2022/09/22 13:20:54;;;;;;;2.03;1.08;;;17.30;82.50;;;;;;10377110;28;20491;-65
2022/09/22 13:26:05;;;;;;;2.53;1.30;;;17.30;82.50;;;;;;10371164;28;20368;-65
2022/09/22 13:31:16;;;;;;;4.25;1.52;;;17.30;82.50;;;;;;10368833;28;20576;-65
2022/09/22 13:36:18;;;;;;;1.58;1.17;;;17.40;82.60;;;;;;10374218;28;20413;-66
2022/09/22 13:41:25;;;;;;;2.42;1.30;;;17.40;82.70;;;;;;10376549;28;20523;-66
2022/09/22 13:46:37;;;;;;;1.30;1.10;;;17.40;82.90;;;;;;10362698;28;20552;-65
2022/09/22 13:51:38;;;;;;;2.00;1.27;;;17.50;82.90;;;;;;10363113;28;20048;-65
2022/09/22 13:56:40;;;;;;;2.83;1.13;;;17.60;82.80;;;;;;10376173;28;20028;-68
2022/09/22 14:01:47;;;;;;;2.28;1.10;;;17.70;82.70;;;;;;10370441;28;21287;-65
2022/09/22 14:06:49;;;;;;;2.42;1.10;;;17.70;82.50;;;;;;10372308;28;20463;-65
2022/09/22 14:11:51;;;;;;;2.20;0.90;;;17.70;82.70;;;;;;10380223;28;20268;-65
2022/09/22 14:17:11;;;;;;;1.30;1.20;;;17.70;82.80;;;;;;10374644;28;20469;-66
2022/09/22 14:22:27;;;;;;;1.30;1.13;;;17.70;83.00;;;;;;10368429;28;20607;-66
2022/09/22 14:27:40;;;;;;;1.77;0.90;;;17.80;82.70;;;;;;10377852;28;20408;-66
2022/09/22 14:32:54;;;;;;;1.42;1.20;;;17.90;82.70;;;;;;10352381;22;20366;-66
2022/09/22 14:37:57;;;;;;;1.20;1.10;;;17.90;82.60;;;;;;10281246;28;20256;-65
2022/09/22 14:43:08;;;;;;;1.80;1.10;;;17.90;82.70;;;;;;10282434;28;20069;-65
2022/09/22 14:48:22;;;;;;;4.72;1.55;;;18.00;82.60;;;;;;10281874;28;20038;-62
2022/09/22 14:53:36;;;;;;;2.53;2.13;;;18.10;82.00;;;;;;10278721;28;20052;-67
2022/09/22 14:58:40;;;;;;;4.85;1.90;;;18.20;79.30;;;;;;10277813;28;20518;-63
2022/09/22 15:04:01;;;;;;;5.70;2.25;;;18.20;79.80;;;;;;10274442;28;20026;-63
2022/09/22 15:09:03;;;;;;;3.47;2.17;;;18.20;79.80;;;;;;10279448;28;20041;-62
2022/09/22 15:14:40;;;;;;;5.03;2.22;;;18.10;79.40;;;;;;10279884;28;20266;-63
2022/09/22 15:19:41;;;;;;;7.18;1.98;;;18.00;77.80;;;;;;10278251;28;20038;-62
2022/09/22 15:24:42;;;;;;;7.03;1.95;;;17.90;79.60;;;;;;10277424;28;20553;-62
2022/09/22 15:29:44;;;;;;;2.88;1.88;;;17.90;79.60;;;;;;10273232;28;20478;-62
2022/09/22 15:34:45;;;;;;;5.00;2.00;;;17.80;79.70;;;;;;10268455;28;20332;-63
2022/09/22 15:39:46;;;;;;;5.65;1.92;;;17.80;79.50;;;;;;10270633;28;20542;-61
2022/09/22 15:44:46;;;;;;;2.45;1.83;;;17.80;79.60;;;;;;10275230;28;20039;-62
2022/09/22 15:49:48;;;;;;;5.47;2.20;;;17.90;79.70;;;;;;10265918;28;20155;-64
2022/09/22 15:54:49;;;;;;;3.92;2.00;;;17.90;79.80;;;;;;10274384;28;20034;-63
2022/09/22 15:59:51;;;;;;;5.95;2.17;;;17.90;79.80;;;;;;10268570;28;20727;-62
2022/09/22 16:04:54;;;;;;;4.20;2.22;;;17.80;79.80;;;;;;10287691;28;20945;-64
2022/09/22 16:09:55;;;;;;;4.43;2.25;;;17.70;80.00;;;;;;10277451;28;20042;-62
2022/09/22 16:14:58;;;;;;;4.80;2.72;;;17.60;80.50;;;;;;10278363;28;20101;-63
2022/09/22 16:19:59;;;;;;;2.65;2.00;;;17.40;80.50;;;;;;10277647;28;20498;-63
2022/09/22 16:25:01;;;;;;;3.60;2.10;;;17.30;80.90;;;;;;10275134;28;20034;-62
2022/09/22 16:30:03;;;;;;;4.57;2.42;;;17.20;81.50;;;;;;10266687;28;20047;-62
2022/09/22 16:35:04;;;;;;;3.53;2.55;;;17.20;82.20;;;;;;10272989;28;20054;-62
2022/09/22 16:40:05;;;;;;;6.13;2.55;;;17.10;82.80;;;;;;10269901;28;20029;-63
2022/09/22 16:45:06;;;;;;;3.30;2.60;;;17.00;83.10;;;;;;10265500;28;20882;-63
2022/09/22 16:50:11;;;;;;;5.70;2.80;;;16.90;83.30;;;;;;10270940;28;20045;-65
2022/09/22 16:55:12;;;;;;;4.68;2.40;;;16.90;83.80;;;;;;10265022;28;20034;-64
2022/09/22 17:00:13;;;;;;;6.78;2.90;;;16.70;84.20;;;;;;10276140;28;20027;-63
2022/09/22 17:05:14;;;;;;;5.25;3.28;;;16.70;84.70;;;;;;10275195;28;20337;-64
2022/09/22 17:10:15;;;;;;;3.60;2.85;;;16.60;85.30;;;;;;10279132;28;20125;-65
2022/09/22 17:15:18;;;;;;;2.92;2.35;;;16.40;85.80;;;;;;10273681;28;20026;-64
2022/09/22 17:20:20;;;;;;;5.03;2.40;;;16.30;86.40;;;;;;10278181;28;20213;-64
2022/09/22 17:25:21;;;;;;;3.60;2.25;;;15.90;86.50;;;;;;10328694;23;20046;-65
2022/09/22 17:30:24;;;;;;;6.45;2.40;;;16.10;87.10;;;;;;10279230;28;20600;-64
2022/09/22 17:35:25;;;;;;;3.42;2.30;;;16.00;87.70;;;;;;10277684;28;20042;-66
2022/09/22 17:40:26;;;;;;;4.15;2.45;;;15.90;88.40;;;;;;10278089;28;20160;-68
2022/09/22 17:45:36;;;;;;;6.18;2.40;;;15.70;89.20;;;;;;10271556;28;21001;-68
2022/09/22 17:55:58;;;;;;;3.38;2.10;;;15.90;89.30;;;;;;10265544;28;20034;-69
2022/09/22 18:00:59;;;;;;;5.78;2.10;;;16.00;88.90;;;;;;10306742;28;20387;-69
2022/09/22 18:06:02;;;;;;;4.60;2.03;;;16.10;88.60;;;;;;10340980;28;20489;-68
2022/09/22 18:11:03;;;;;;;3.58;1.90;;;16.20;88.50;;;;;;10350005;28;20129;-68
2022/09/22 18:16:21;;;;;;;5.97;1.88;;;16.20;88.30;;;;;;10353652;28;20030;-69
2022/09/22 18:21:22;;;;;;;3.70;2.03;;;16.30;88.50;;;;;;10352336;28;20463;-68
2022/09/22 18:26:23;;;;;;;4.88;2.28;;;16.30;88.10;;;;;;10353145;28;20072;-68
2022/09/22 18:31:25;;;;;;;4.70;2.17;;;16.30;88.00;;;;;;10346735;28;20099;-69
2022/09/22 18:36:26;;;;;;;4.28;1.90;;;16.40;88.00;;;;;;10342358;28;20033;-69
2022/09/22 18:41:27;;;;;;;3.67;1.80;;;16.40;87.90;;;;;;10337045;28;20490;-70
2022/09/22 18:46:28;;;;;;;1.70;1.48;;;16.40;87.80;;;;;;10340947;28;20514;-69
2022/09/22 18:51:32;;;;;;;3.47;1.73;;;16.40;87.80;;;;;;10345673;28;20038;-69
2022/09/22 18:56:41;;;;;;;3.28;1.88;;;16.30;87.80;;;;;;10349859;28;20057;-68
2022/09/22 19:01:42;;;;;;;2.85;1.63;;;16.30;87.80;;;;;;10346230;28;20018;-69
2022/09/22 19:12:11;;;;;;;2.88;1.80;;;16.30;87.70;;;;;;10354119;28;20037;-69
2022/09/22 19:17:12;;;;;;;5.13;2.15;;;16.30;87.70;;;;;;10352841;28;20088;-69
2022/09/22 19:22:12;;;;;;;3.17;1.50;;;16.30;87.70;;;;;;10356093;28;20123;-69
2022/09/22 19:27:16;;;;;;;2.97;2.03;;;16.30;87.60;;;;;;10357474;28;20022;-69
2022/09/22 19:32:17;;;;;;;3.10;2.30;;;16.20;87.60;;;;;;10348598;28;20493;-69
2022/09/22 19:37:18;;;;;;;5.13;1.80;;;15.90;87.40;;;;;;10355244;28;20022;-69
2022/09/22 19:42:23;;;;;;;2.63;1.98;;;16.20;87.60;;;;;;10356354;28;20026;-69
2022/09/22 19:47:27;;;;;;;3.13;1.95;;;16.20;87.50;;;;;;10352482;28;20107;-69
2022/09/22 19:52:30;;;;;;;2.55;1.90;;;16.20;87.60;;;;;;10347984;28;20508;-69
2022/09/22 19:57:30;;;;;;;3.28;1.80;;;16.10;87.40;;;;;;10353691;28;20026;-69
2022/09/22 20:02:31;;;;;;;3.10;1.90;;;16.10;87.50;;;;;;10347191;28;20096;-69
2022/09/22 20:07:32;;;;;;;4.55;2.15;;;16.10;87.40;;;;;;10411015;22;20054;-69
2022/09/22 20:12:33;;;;;;;3.25;2.05;;;16.10;87.50;;;;;;10320051;28;20026;-69
2022/09/22 20:17:33;;;;;;;3.28;2.15;;;16.00;87.40;;;;;;10356839;28;20042;-69
2022/09/22 20:22:35;;;;;;;3.40;2.10;;;16.00;87.40;;;;;;10351742;28;20034;-69
2022/09/22 20:27:36;;;;;;;4.03;2.15;;;16.00;87.40;;;;;;10348354;28;20437;-69
2022/09/22 20:32:37;;;;;;;2.90;1.88;;;16.00;87.40;;;;;;10351431;28;20499;-69
2022/09/22 20:37:38;;;;;;;3.17;1.95;;;16.00;87.40;;;;;;10354067;28;20042;-69
2022/09/22 20:42:43;;;;;;;3.20;2.20;;;16.00;87.40;;;;;;10354433;28;20386;-69
2022/09/22 20:48:03;;;;;;;4.68;2.10;;;15.90;87.50;;;;;;10350632;28;20133;-69
2022/09/22 20:53:11;;;;;;;2.38;2.00;;;15.90;87.30;;;;;;10353369;28;20038;-69
2022/09/22 20:58:18;;;;;;;3.13;1.90;;;15.90;87.40;;;;;;10349023;28;20334;-69
2022/09/22 21:03:19;;;;;;;2.20;2.00;;;16.50;87.70;;;;;;10352974;28;20030;-69
2022/09/22 21:13:43;;;;;;;3.13;2.30;;;15.80;87.30;;;;;;10343990;28;20026;-69
2022/09/22 21:19:06;;;;;;;3.70;2.40;;;15.80;87.20;;;;;;10346202;28;20439;-69
2022/09/22 21:24:08;;;;;;;3.92;2.33;;;15.80;87.20;;;;;;10350751;28;20030;-69
2022/09/22 21:29:09;;;;;;;2.95;2.50;;;15.70;87.20;;;;;;10348229;28;20127;-69
2022/09/22 21:34:10;;;;;;;2.83;2.15;;;15.70;87.20;;;;;;10481890;23;20570;-69
2022/09/22 21:39:11;;;;;;;3.55;2.08;;;15.70;87.20;;;;;;10345945;28;20082;-69
2022/09/22 21:44:12;;;;;;;5.43;3.03;;;15.70;87.20;;;;;;10353102;28;20025;-69
2022/09/22 21:49:12;;;;;;;3.35;2.40;;;15.70;87.20;;;;;;10353398;28;20132;-69
2022/09/22 21:54:16;;;;;;;2.80;2.03;;;15.60;87.10;;;;;;10352930;28;20393;-69
2022/09/22 21:59:17;;;;;;;3.55;2.20;;;15.60;87.20;;;;;;10355870;28;20033;-69
2022/09/22 22:04:18;;;;;;;3.28;2.33;;;15.60;87.20;;;;;;10356162;28;20033;-69
2022/09/22 22:09:21;;;;;;;4.53;2.85;;;15.60;87.20;;;;;;10354681;28;20396;-69
2022/09/22 22:14:24;;;;;;;3.33;2.30;;;15.60;87.20;;;;;;10355123;28;21131;-69
2022/09/22 22:19:25;;;;;;;3.10;2.35;;;15.60;87.20;;;;;;10361439;23;20038;-68
2022/09/22 22:24:40;;;;;;;3.38;2.50;;;15.50;87.20;;;;;;10353306;28;20113;-69
2022/09/22 22:29:40;;;;;;;3.38;2.67;;;15.50;87.10;;;;;;10352485;28;20116;-69
2022/09/22 22:34:41;;;;;;;4.80;2.60;;;15.50;87.10;;;;;;10354260;28;20433;-69
2022/09/22 22:39:42;;;;;;;3.05;2.50;;;15.50;87.10;;;;;;10354035;28;20042;-69
2022/09/22 22:44:43;;;;;;;3.80;2.45;;;15.50;87.20;;;;;;10355594;28;20026;-69
2022/09/22 22:49:43;;;;;;;4.60;2.72;;;15.40;87.10;;;;;;10360614;28;20034;-69
2022/09/22 22:54:44;;;;;;;6.68;2.60;;;15.40;87.00;;;;;;10362426;28;20092;-69
2022/09/22 22:59:46;;;;;;;3.00;2.70;;;15.40;87.00;;;;;;10360756;28;20124;-68
2022/09/22 23:04:47;;;;;;;4.47;2.60;;;15.40;87.10;;;;;;10359821;28;20109;-69
2022/09/22 23:10:04;;;;;;;4.45;2.50;;;15.40;87.10;;;;;;10358907;28;20140;-69
2022/09/22 23:15:10;;;;;;;3.53;2.50;;;15.30;87.00;;;;;;10355881;28;20033;-69
2022/09/22 23:20:11;;;;;;;4.78;2.80;;;15.30;87.00;;;;;;10361197;28;20069;-70
2022/09/22 23:25:13;;;;;;;5.00;2.88;;;15.30;87.00;;;;;;10359021;28;20034;-69
2022/09/22 23:30:15;;;;;;;3.33;2.80;;;15.30;87.00;;;;;;10359405;28;20509;-69
2022/09/22 23:35:16;;;;;;;3.63;2.95;;;15.30;87.00;;;;;;10357254;28;20212;-69
2022/09/22 23:40:16;;;;;;;3.97;3.20;;;15.30;87.00;;;;;;10360087;28;20075;-69
2022/09/22 23:45:17;;;;;;;4.53;3.20;;;15.20;86.90;;;;;;10360398;28;20034;-69
2022/09/22 23:50:18;;;;;;;5.80;3.45;;;15.20;86.90;;;;;;10359207;28;20041;-69
2022/09/22 23:55:19;;;;;;;4.40;3.60;;;15.20;86.80;;;;;;10356841;28;20362;-69
